Paradise, Montana
Current Conditions -  °F | °C
As of 12:25 PM on Thursday 23 Oct 2014 (Local Time) from KMLP Reporting Station
Light Rain Light Rain  
Wind Chill: 33°   Ceiling: 100
Heat Index: 40°   Visibility: 0.75mi
Dew Point: 40°   Wind: 12mph
Humidity: 100%   Direction: 190°S
Pressure: 29.87"   Gusts: 23mph
Location:  47.39°N, 114.8°W
Report Text: KMLP 231825Z AUTO 19010G20KT 3/4SM -RA BR BKN001 BKN005 OVC015 04/04 A2987 RMK AO2 P0007 T00440044
Loading
Personal Weather Stations






























Interactive Weather Map
Tropical Storm Tracking
New forecast layout! Learn more

10-Day Weather Forecast

Advertisements
Track Severe Weather on mobile